Terminal Aerodrome Forecast
Issued by NWS Atlanta, GA

Current Version | Previous Version | Text Only | Print | Product List | Glossary On
Versions: 1 2 3 4 5 6 7 8 9 10 11 12 13 14 15 16 17 18 19 20 21
000
FTUS42 KFFC 231914 AAA
TAFMCN
TAF AMD
KMCN 231914Z 2319/2418 22007KT P6SM VCSH SCT050
      TEMPO 2322/2324 5SM -TSRA BKN040CB
     FM240100 22003KT P6SM SCT120 BKN250
     FM241500 25005KT P6SM SCT035
     FM241700 22006KT P6SM VCSH SCT045=

USA.gov is the U.S. government's official web portal to all federal, state and local government web resources and services.